createdAt,value
2016-06-22T00:00:33.864Z,0
2016-06-22T00:01:59.032Z,0
2016-06-22T00:02:44.865Z,0
2016-06-22T00:03:33.863Z,0
2016-06-22T00:04:33.977Z,0
2016-06-22T00:05:33.844Z,0
2016-06-22T00:06:33.845Z,0
2016-06-22T00:07:33.848Z,0
2016-06-22T00:08:33.926Z,0
2016-06-22T00:09:34.002Z,0
2016-06-22T00:10:33.904Z,0
2016-06-22T00:11:33.941Z,0
2016-06-22T00:12:34.112Z,0
2016-06-22T00:13:33.895Z,0
2016-06-22T00:14:33.828Z,0
2016-06-22T00:15:34.095Z,0
2016-06-22T00:16:33.854Z,0
2016-06-22T00:17:33.910Z,0
2016-06-22T00:18:34.071Z,0
2016-06-22T00:19:33.898Z,0
2016-06-22T00:20:33.978Z,0
2016-06-22T00:21:33.890Z,0
2016-06-22T00:22:33.873Z,0
2016-06-22T00:23:35.062Z,0
2016-06-22T00:24:33.942Z,0
2016-06-22T00:25:33.992Z,0
2016-06-22T00:26:33.887Z,0
2016-06-22T00:27:33.927Z,0
2016-06-22T00:28:33.979Z,0
2016-06-22T00:29:33.973Z,0
2016-06-22T00:30:33.927Z,0
2016-06-22T00:31:33.958Z,0
2016-06-22T00:32:33.979Z,0
2016-06-22T00:33:33.927Z,0
2016-06-22T00:34:33.905Z,0
2016-06-22T00:35:34.005Z,0
2016-06-22T00:36:33.979Z,0
2016-06-22T00:37:33.919Z,0
2016-06-22T00:38:33.904Z,0
2016-06-22T00:39:33.966Z,0
2016-06-22T00:40:33.944Z,0
2016-06-22T00:41:33.967Z,0
2016-06-22T00:42:33.872Z,0
2016-06-22T00:43:33.914Z,0
2016-06-22T00:44:33.936Z,0
2016-06-22T00:45:33.970Z,0
2016-06-22T00:46:34.435Z,0
2016-06-22T00:47:34.037Z,0
2016-06-22T00:48:34.062Z,0
2016-06-22T00:49:34.006Z,0
2016-06-22T00:50:35.695Z,0
2016-06-22T00:51:33.945Z,0
2016-06-22T00:52:33.979Z,0
2016-06-22T00:53:33.920Z,0
2016-06-22T00:54:33.943Z,0
2016-06-22T00:55:33.858Z,0
2016-06-22T00:56:33.938Z,0
2016-06-22T00:57:33.887Z,0
2016-06-22T00:58:33.894Z,0
2016-06-22T00:59:33.907Z,0
2016-06-22T01:00:33.959Z,0
2016-06-22T01:01:33.956Z,0
2016-06-22T01:02:33.920Z,0
2016-06-22T01:03:33.975Z,0
2016-06-22T01:04:34.003Z,0
2016-06-22T01:05:33.974Z,0
2016-06-22T01:06:33.919Z,0
2016-06-22T01:07:33.902Z,0
2016-06-22T01:08:34.059Z,0
2016-06-22T01:09:34.007Z,0
2016-06-22T01:10:33.961Z,0
2016-06-22T01:11:33.945Z,0
2016-06-22T01:12:33.944Z,0
2016-06-22T01:13:33.984Z,0
2016-06-22T01:14:33.934Z,0
2016-06-22T01:15:34.227Z,0
2016-06-22T01:16:33.955Z,0
2016-06-22T01:17:33.923Z,0
2016-06-22T01:18:33.854Z,0
2016-06-22T01:19:33.946Z,0
2016-06-22T01:20:33.955Z,0
2016-06-22T01:21:34.109Z,0
2016-06-22T01:22:33.953Z,0
2016-06-22T01:23:34.065Z,0
2016-06-22T01:24:33.977Z,0
2016-06-22T01:25:33.975Z,0
2016-06-22T01:26:33.932Z,0
2016-06-22T01:27:34.046Z,0
2016-06-22T01:28:33.922Z,0
2016-06-22T01:29:34.023Z,0
2016-06-22T01:30:33.962Z,0
2016-06-22T01:31:33.986Z,0
2016-06-22T01:32:33.996Z,0
2016-06-22T01:33:34.017Z,0
2016-06-22T01:34:33.960Z,0
2016-06-22T01:35:33.985Z,0
2016-06-22T01:36:33.941Z,0
2016-06-22T01:37:34.001Z,0
2016-06-22T01:38:34.033Z,0
2016-06-22T01:39:34.009Z,0
2016-06-22T01:40:34.043Z,0
2016-06-22T01:41:34.046Z,0
2016-06-22T01:42:34.267Z,0
2016-06-22T01:43:34.020Z,0
2016-06-22T01:44:34.150Z,0
2016-06-22T01:45:34.112Z,0
2016-06-22T01:46:34.020Z,0
2016-06-22T01:47:34.126Z,0
2016-06-22T01:48:34.309Z,0
2016-06-22T01:49:33.965Z,0
2016-06-22T01:50:33.997Z,0
2016-06-22T01:51:34.902Z,0
2016-06-22T01:52:34.048Z,0
2016-06-22T01:53:33.988Z,0
2016-06-22T01:54:34.116Z,0
2016-06-22T01:55:33.949Z,0
2016-06-22T01:56:34.227Z,0
2016-06-22T01:57:34.276Z,0
2016-06-22T01:58:33.994Z,0
2016-06-22T01:59:33.994Z,0
2016-06-22T02:00:34.084Z,0
2016-06-22T02:01:34.134Z,0
2016-06-22T02:02:33.985Z,0
2016-06-22T02:03:34.047Z,0
2016-06-22T02:04:34.053Z,0
2016-06-22T02:05:34.077Z,0
2016-06-22T02:06:34.112Z,0
2016-06-22T02:07:34.030Z,0
2016-06-22T02:08:34.092Z,0
2016-06-22T02:09:34.158Z,0
2016-06-22T02:10:33.951Z,0
2016-06-22T02:11:34.074Z,0
2016-06-22T02:12:34.057Z,0
2016-06-22T02:13:34.056Z,0
2016-06-22T02:14:34.031Z,0
2016-06-22T02:15:34.544Z,0
2016-06-22T02:16:34.007Z,0
2016-06-22T02:18:14.450Z,0
2016-06-22T02:19:16.938Z,0
2016-06-22T02:20:05.975Z,0
2016-06-22T02:21:05.714Z,0
2016-06-22T02:22:05.711Z,0
2016-06-22T02:23:06.056Z,0
2016-06-22T02:24:05.698Z,0
2016-06-22T02:25:05.744Z,0
2016-06-22T02:27:16.698Z,0
2016-06-22T02:28:37.006Z,4
2016-06-22T02:29:41.245Z,4
2016-06-22T02:30:55.225Z,0
2016-06-22T02:32:20.545Z,0
2016-06-22T02:34:08.726Z,0
2016-06-22T02:35:41.411Z,0
2016-06-22T02:37:30.113Z,0
2016-06-22T02:38:31.367Z,4
2016-06-22T02:40:14.283Z,0
2016-06-22T02:41:11.367Z,4
2016-06-22T02:41:36.811Z,8
2016-06-22T02:42:36.815Z,4
2016-06-22T02:43:36.770Z,8
2016-06-22T02:44:36.939Z,8
2016-06-22T02:45:37.176Z,8
2016-06-22T02:46:36.845Z,8
2016-06-22T02:47:36.834Z,8
2016-06-22T02:48:36.857Z,12
2016-06-22T02:49:36.865Z,12
2016-06-22T02:50:37.059Z,8
2016-06-22T02:51:37.522Z,12
2016-06-22T02:52:36.821Z,12
2016-06-22T02:53:36.808Z,16
2016-06-22T02:54:36.895Z,16
2016-06-22T02:55:36.824Z,20
2016-06-22T02:56:36.875Z,24
2016-06-22T02:57:36.999Z,28
2016-06-22T02:58:37.020Z,32
2016-06-22T03:01:11.722Z,48
2016-06-22T03:02:18.197Z,76
2016-06-22T03:03:26.296Z,84
2016-06-22T03:04:30.613Z,108
2016-06-22T03:05:37.619Z,120
2016-06-22T03:07:30.683Z,116
2016-06-22T03:09:10.305Z,120
2016-06-22T03:10:52.613Z,172
2016-06-22T03:11:44.249Z,196
2016-06-22T03:12:29.955Z,224
2016-06-22T03:13:29.923Z,232
2016-06-22T03:14:29.923Z,240
2016-06-22T03:15:29.980Z,256
2016-06-22T03:16:29.941Z,256
2016-06-22T03:17:29.952Z,280
2016-06-22T03:18:29.950Z,292
2016-06-22T03:19:29.911Z,320
2016-06-22T03:20:29.968Z,380
2016-06-22T03:21:29.975Z,392
2016-06-22T03:22:29.907Z,356
2016-06-22T03:23:30.016Z,324
2016-06-22T03:24:29.882Z,372
2016-06-22T03:25:29.920Z,432
2016-06-22T03:26:30.001Z,476
2016-06-22T03:27:30.007Z,476
2016-06-22T03:28:29.953Z,488
2016-06-22T03:29:29.996Z,480
2016-06-22T03:30:29.969Z,428
2016-06-22T03:31:29.903Z,360
2016-06-22T03:32:29.913Z,324
2016-06-22T03:33:29.987Z,352
2016-06-22T03:34:30.008Z,392
2016-06-22T03:35:30.027Z,440
2016-06-22T03:36:29.921Z,456
2016-06-22T03:37:29.967Z,480
2016-06-22T03:38:29.959Z,524
2016-06-22T03:39:29.891Z,580
2016-06-22T03:40:29.969Z,604
2016-06-22T03:41:29.897Z,624
2016-06-22T03:42:29.993Z,692
2016-06-22T03:43:29.950Z,804
2016-06-22T03:44:29.928Z,940
2016-06-22T03:45:29.915Z,1100
2016-06-22T03:46:29.936Z,1004
2016-06-22T03:47:30.232Z,860
2016-06-22T03:48:30.006Z,940
2016-06-22T03:49:29.945Z,1036
2016-06-22T03:50:29.961Z,1228
2016-06-22T03:51:29.982Z,1456
2016-06-22T03:52:29.988Z,1528
2016-06-22T03:53:29.987Z,1636
2016-06-22T03:54:29.960Z,1828
2016-06-22T03:55:29.990Z,2124
2016-06-22T03:56:29.983Z,2320
2016-06-22T03:57:30.040Z,2524
2016-06-22T03:58:30.101Z,2752
2016-06-22T03:59:30.026Z,3064
2016-06-22T04:00:30.547Z,3324
2016-06-22T04:01:29.997Z,3568
2016-06-22T04:02:29.985Z,3536
2016-06-22T04:03:29.979Z,3364
2016-06-22T04:04:29.993Z,3284
2016-06-22T04:05:29.967Z,3168
2016-06-22T04:06:30.048Z,3144
2016-06-22T04:07:30.050Z,3164
2016-06-22T04:08:30.003Z,2988
2016-06-22T04:09:30.041Z,3192
2016-06-22T04:10:29.980Z,3412
2016-06-22T04:11:30.021Z,3228
2016-06-22T04:12:29.976Z,3204
2016-06-22T04:13:29.998Z,3472
2016-06-22T04:14:29.927Z,3848
2016-06-22T04:15:29.935Z,3992
2016-06-22T04:16:30.092Z,4064
2016-06-22T04:17:30.073Z,4012
2016-06-22T04:18:30.047Z,4052
2016-06-22T04:19:29.984Z,4092
2016-06-22T04:20:29.988Z,3928
2016-06-22T04:21:30.016Z,3560
2016-06-22T04:22:29.972Z,3508
2016-06-22T04:23:30.080Z,3484
2016-06-22T04:24:30.188Z,3440
2016-06-22T04:25:30.002Z,2832
2016-06-22T04:26:30.690Z,2544
2016-06-22T04:27:30.094Z,2924
2016-06-22T04:28:30.042Z,3192
2016-06-22T04:29:29.982Z,3316
2016-06-22T04:30:30.051Z,3084
2016-06-22T04:31:29.989Z,3112
2016-06-22T04:32:30.115Z,4192
2016-06-22T04:33:29.947Z,5284
2016-06-22T04:34:30.006Z,6284
2016-06-22T04:35:30.059Z,7048
2016-06-22T04:36:30.011Z,7672
2016-06-22T04:37:30.035Z,8216
2016-06-22T04:38:30.017Z,8836
2016-06-22T04:39:30.066Z,9616
2016-06-22T04:40:29.954Z,10392
2016-06-22T04:41:30.055Z,11172
2016-06-22T04:42:29.991Z,11896
2016-06-22T04:43:29.993Z,12520
2016-06-22T04:44:29.980Z,13080
2016-06-22T04:45:30.039Z,13456
2016-06-22T04:46:30.050Z,13628
2016-06-22T04:47:29.983Z,13544
2016-06-22T04:48:29.954Z,13336
2016-06-22T04:49:30.023Z,13244
2016-06-22T04:50:30.038Z,12984
2016-06-22T04:52:04.046Z,12412
2016-06-22T04:53:07.491Z,11168
2016-06-22T04:54:14.198Z,9688
2016-06-22T04:54:48.841Z,9052
2016-06-22T04:55:51.887Z,8580
2016-06-22T04:57:15.473Z,8104
2016-06-22T04:58:42.308Z,7208
2016-06-22T05:00:29.806Z,7036
2016-06-22T05:01:52.002Z,9276
2016-06-22T05:03:13.444Z,8032
2016-06-22T05:04:35.795Z,6204
2016-06-22T05:05:54.919Z,6028
2016-06-22T05:07:15.107Z,5764
2016-06-22T05:08:25.928Z,5704
2016-06-22T05:09:46.591Z,5820
2016-06-22T05:10:36.984Z,6504
2016-06-22T05:11:57.410Z,9284
2016-06-22T05:12:39.322Z,10664
2016-06-22T05:13:28.006Z,12736
2016-06-22T05:14:28.553Z,12096
2016-06-22T05:15:27.940Z,11648
2016-06-22T05:17:20.233Z,10592
2016-06-22T05:17:30.823Z,10616
2016-06-22T05:18:30.811Z,9672
2016-06-22T05:19:30.796Z,9460
2016-06-22T05:20:30.849Z,8092
2016-06-22T05:21:30.792Z,7504
2016-06-22T05:22:30.759Z,7648
2016-06-22T05:23:30.839Z,6828
2016-06-22T05:24:30.758Z,6116
2016-06-22T05:25:31.184Z,7292
2016-06-22T05:26:30.722Z,10000
2016-06-22T05:27:30.811Z,11064
2016-06-22T05:28:30.779Z,14612
2016-06-22T05:29:30.862Z,15544
2016-06-22T05:30:30.847Z,17512
2016-06-22T05:31:51.589Z,13024
2016-06-22T05:32:30.761Z,16316
2016-06-22T05:33:30.991Z,17120
2016-06-22T05:34:30.730Z,17040
2016-06-22T05:35:30.794Z,14372
2016-06-22T05:36:30.805Z,13784
2016-06-22T05:37:30.788Z,10132
2016-06-22T05:38:30.802Z,11508
2016-06-22T05:39:30.807Z,10224
2016-06-22T05:40:30.867Z,9120
2016-06-22T05:41:30.715Z,9240
2016-06-22T05:42:30.725Z,10092
2016-06-22T05:43:30.776Z,9636
2016-06-22T05:44:30.658Z,9128
2016-06-22T05:45:30.603Z,8616
2016-06-22T05:46:30.639Z,10368
2016-06-22T05:47:30.617Z,10172
2016-06-22T05:48:30.608Z,9644
2016-06-22T05:49:30.630Z,8072
2016-06-22T05:50:30.620Z,9580
2016-06-22T05:51:30.603Z,11832
2016-06-22T05:52:30.681Z,11956
2016-06-22T05:53:30.681Z,9756
2016-06-22T05:54:30.632Z,7140
2016-06-22T05:55:30.622Z,7532
2016-06-22T05:56:30.606Z,7876
2016-06-22T05:57:30.690Z,8544
2016-06-22T05:58:30.657Z,8612
2016-06-22T05:59:30.619Z,8124
2016-06-22T06:00:30.620Z,7860
2016-06-22T06:01:30.746Z,7720
2016-06-22T06:02:30.653Z,7724
2016-06-22T06:03:30.614Z,7220
2016-06-22T06:04:30.649Z,7052
2016-06-22T06:05:30.617Z,7712
2016-06-22T06:06:30.640Z,7456
2016-06-22T06:07:30.650Z,8520
2016-06-22T06:08:30.706Z,9248
2016-06-22T06:09:31.093Z,10248
2016-06-22T06:10:30.701Z,10624
2016-06-22T06:11:30.682Z,11728
2016-06-22T06:12:30.710Z,12144
2016-06-22T06:13:30.602Z,11728
2016-06-22T06:14:30.680Z,11880
2016-06-22T06:15:30.651Z,12120
2016-06-22T06:16:30.639Z,12712
2016-06-22T06:17:30.656Z,13256
2016-06-22T06:18:30.698Z,12956
2016-06-22T06:19:30.652Z,12892
2016-06-22T06:20:30.683Z,12868
2016-06-22T06:21:30.633Z,12532
2016-06-22T06:22:30.655Z,12808
2016-06-22T06:23:30.671Z,12540
2016-06-22T06:24:30.607Z,12760
2016-06-22T06:25:30.653Z,12176
2016-06-22T06:26:30.661Z,10224
2016-06-22T06:27:30.697Z,10400
2016-06-22T06:28:30.689Z,11664
2016-06-22T06:29:30.654Z,13772
2016-06-22T06:30:30.701Z,14368
2016-06-22T06:31:30.663Z,13116
2016-06-22T06:32:30.671Z,13380
2016-06-22T06:33:30.699Z,15320
2016-06-22T06:34:30.679Z,17840
2016-06-22T06:35:30.694Z,21120
2016-06-22T06:36:30.701Z,22688
2016-06-22T06:37:30.718Z,23488
2016-06-22T06:38:30.698Z,23520
2016-06-22T06:39:30.665Z,26400
2016-06-22T06:40:31.311Z,28288
2016-06-22T06:41:30.709Z,31072
2016-06-22T06:42:30.731Z,29696
2016-06-22T06:43:30.745Z,36704
2016-06-22T06:44:30.715Z,44576
2016-06-22T06:45:30.778Z,45088
2016-06-22T06:46:30.698Z,29024
2016-06-22T06:47:30.716Z,24352
2016-06-22T06:48:30.680Z,19200
2016-06-22T06:49:30.685Z,60192
2016-06-22T06:50:30.682Z,46208
2016-06-22T06:51:30.669Z,55840
2016-06-22T06:52:30.708Z,48096
2016-06-22T06:53:30.685Z,48992
2016-06-22T06:54:30.693Z,62080
2016-06-22T06:55:30.827Z,59712
2016-06-22T06:56:30.789Z,46272
2016-06-22T06:57:30.844Z,17632
2016-06-22T06:58:32.461Z,26880
2016-06-22T06:59:30.812Z,30464
2016-06-22T07:00:30.726Z,17432
2016-06-22T07:01:30.722Z,9212
2016-06-22T07:02:30.860Z,7872
2016-06-22T07:03:30.716Z,7704
2016-06-22T07:04:30.694Z,8256
2016-06-22T07:05:30.695Z,9828
2016-06-22T07:06:30.681Z,8028
2016-06-22T07:07:30.682Z,9504
2016-06-22T07:08:30.695Z,14120
2016-06-22T07:09:30.711Z,17984
2016-06-22T07:10:30.700Z,16584
2016-06-22T07:11:30.735Z,16244
2016-06-22T07:12:30.745Z,25664
2016-06-22T07:13:30.662Z,26976
2016-06-22T07:14:30.772Z,31904
2016-06-22T07:15:30.733Z,34880
2016-06-22T07:16:30.788Z,24800
2016-06-22T07:17:32.294Z,28960
2016-06-22T07:18:30.834Z,44640
2016-06-22T07:19:31.693Z,28800
2016-06-22T07:20:30.705Z,38784
2016-06-22T07:21:32.116Z,48736
2016-06-22T07:22:30.911Z,63296
2016-06-22T07:23:30.715Z,25696
2016-06-22T07:24:30.873Z,23936
2016-06-22T07:25:32.217Z,23296
2016-06-22T07:26:30.709Z,65024
2016-06-22T07:27:30.934Z,48000
2016-06-22T07:28:30.902Z,44928
2016-06-22T07:29:30.893Z,48096
2016-06-22T07:30:31.267Z,60384
2016-06-22T07:31:30.896Z,65632
2016-06-22T07:32:30.809Z,29184
2016-06-22T07:33:31.466Z,56896
2016-06-22T07:34:31.243Z,33664
2016-06-22T07:35:31.111Z,71808
2016-06-22T07:36:30.871Z,73440
2016-06-22T07:37:30.862Z,66816
2016-06-22T07:38:31.458Z,67168
2016-06-22T07:39:31.207Z,48000
2016-06-22T07:40:30.989Z,53440
2016-06-22T07:41:30.776Z,30272
2016-06-22T07:42:30.710Z,56608
2016-06-22T07:43:30.704Z,46144
2016-06-22T07:44:30.957Z,17460
2016-06-22T07:45:30.754Z,16144
2016-06-22T07:46:30.755Z,12192
2016-06-22T07:47:30.745Z,19168
2016-06-22T07:48:30.762Z,20896
2016-06-22T07:49:30.740Z,17052
2016-06-22T07:50:30.752Z,15516
2016-06-22T07:51:30.775Z,17164
2016-06-22T07:52:30.749Z,11212
2016-06-22T07:53:30.745Z,21664
2016-06-22T07:54:30.722Z,27136
2016-06-22T07:55:30.757Z,39296
2016-06-22T07:56:30.771Z,35648
2016-06-22T07:57:30.829Z,59264
2016-06-22T07:58:30.777Z,45344
2016-06-22T07:59:30.762Z,74016
2016-06-22T08:00:30.762Z,57152
2016-06-22T08:01:30.751Z,45472
2016-06-22T08:02:30.833Z,35264
2016-06-22T08:03:30.771Z,27968
2016-06-22T08:04:30.769Z,38240
2016-06-22T08:05:30.806Z,79136
2016-06-22T08:06:30.754Z,61312
2016-06-22T08:07:30.759Z,41760
2016-06-22T08:08:30.771Z,32480
2016-06-22T08:09:30.749Z,29952
2016-06-22T08:10:30.772Z,29024
2016-06-22T08:11:30.774Z,26080
2016-06-22T08:12:30.772Z,21856
2016-06-22T08:13:30.783Z,19104
2016-06-22T08:14:30.773Z,25824
2016-06-22T08:15:30.751Z,23680
2016-06-22T08:16:30.754Z,19360
2016-06-22T08:17:30.731Z,17240
2016-06-22T08:18:30.763Z,21248
2016-06-22T08:19:30.778Z,20608
2016-06-22T08:20:30.782Z,19616
2016-06-22T08:21:30.810Z,19328
2016-06-22T08:22:30.871Z,23296
2016-06-22T08:23:31.404Z,29504
2016-06-22T08:24:30.896Z,28352
2016-06-22T08:25:30.805Z,22496
2016-06-22T08:26:30.881Z,17552
2016-06-22T08:27:30.802Z,18160
2016-06-22T08:28:30.777Z,16276
2016-06-22T08:29:30.944Z,23520
2016-06-22T08:30:30.919Z,22272
2016-06-22T08:31:30.846Z,22784
2016-06-22T08:32:30.770Z,18492
2016-06-22T08:33:30.803Z,12668
2016-06-22T08:34:30.974Z,11404
2016-06-22T08:35:30.873Z,11052
2016-06-22T08:36:30.746Z,10920
2016-06-22T08:37:30.808Z,13140
2016-06-22T08:38:30.823Z,17148
2016-06-22T08:39:30.814Z,17768
2016-06-22T08:40:30.861Z,16096
2016-06-22T08:41:30.850Z,16764
2016-06-22T08:42:30.829Z,20960
2016-06-22T08:43:30.854Z,17316
2016-06-22T08:44:30.800Z,15628
2016-06-22T08:45:30.813Z,13544
2016-06-22T08:46:30.825Z,12968
2016-06-22T08:47:30.821Z,13288
2016-06-22T08:48:30.871Z,14736
2016-06-22T08:49:30.778Z,15968
2016-06-22T08:50:30.880Z,14556
2016-06-22T08:51:30.805Z,11480
2016-06-22T08:52:32.069Z,11892
2016-06-22T08:53:30.805Z,13632
2016-06-22T08:54:30.919Z,14312
2016-06-22T08:55:30.901Z,19040
2016-06-22T08:56:30.825Z,17372
2016-06-22T08:57:30.839Z,19552
2016-06-22T08:58:30.823Z,22080
2016-06-22T08:59:30.973Z,17684
2016-06-22T09:00:30.830Z,17492
2016-06-22T09:01:31.050Z,21056
2016-06-22T09:02:30.968Z,21568
2016-06-22T09:03:31.063Z,21088
2016-06-22T09:04:30.999Z,19904
2016-06-22T09:05:30.863Z,16148
2016-06-22T09:06:30.970Z,14888
2016-06-22T09:07:30.825Z,17656
2016-06-22T09:08:30.913Z,19648
2016-06-22T09:09:30.920Z,19200
2016-06-22T09:10:30.949Z,20224
2016-06-22T09:11:31.604Z,19776
2016-06-22T09:12:30.962Z,20384
2016-06-22T09:13:30.901Z,19776
2016-06-22T09:14:31.826Z,20320
2016-06-22T09:15:30.974Z,19328
2016-06-22T09:16:30.944Z,20608
2016-06-22T09:17:31.095Z,20288
2016-06-22T09:18:31.015Z,18188
2016-06-22T09:19:30.991Z,15480
2016-06-22T09:20:30.846Z,17176
2016-06-22T09:21:30.849Z,14692
2016-06-22T09:22:30.995Z,13912
2016-06-22T09:23:30.843Z,15612
2016-06-22T09:24:30.844Z,13784
2016-06-22T09:25:30.890Z,11712
2016-06-22T09:26:31.203Z,15984
2016-06-22T09:27:30.878Z,20224
2016-06-22T09:28:30.930Z,19712
2016-06-22T09:29:30.968Z,17868
2016-06-22T09:30:30.907Z,15316
2016-06-22T09:31:30.931Z,14192
2016-06-22T09:32:30.845Z,11864
2016-06-22T09:33:31.028Z,13200
2016-06-22T09:34:30.882Z,15988
2016-06-22T09:35:30.902Z,14280
2016-06-22T09:36:30.865Z,12016
2016-06-22T09:37:30.898Z,13104
2016-06-22T09:38:31.424Z,13884
2016-06-22T09:39:30.898Z,14040
2016-06-22T09:40:30.872Z,11820
2016-06-22T09:41:30.849Z,10976
2016-06-22T09:42:30.897Z,11920
2016-06-22T09:43:31.019Z,12912
2016-06-22T09:44:30.859Z,13100
2016-06-22T09:45:30.957Z,11212
2016-06-22T09:46:30.995Z,11452
2016-06-22T09:47:30.956Z,11672
2016-06-22T09:48:30.937Z,10120
2016-06-22T09:49:30.874Z,10920
2016-06-22T09:50:31.006Z,11008
2016-06-22T09:51:30.964Z,13044
2016-06-22T09:52:31.040Z,12000
2016-06-22T09:53:31.099Z,13140
2016-06-22T09:54:31.066Z,13932
2016-06-22T09:55:31.077Z,14048
2016-06-22T09:56:31.184Z,12400
2016-06-22T09:57:31.142Z,12056
2016-06-22T09:58:31.083Z,12480
2016-06-22T09:59:30.946Z,12896
2016-06-22T10:00:31.033Z,14776
2016-06-22T10:01:31.034Z,16616
2016-06-22T10:02:31.158Z,18772
2016-06-22T10:03:31.059Z,20000
2016-06-22T10:04:31.038Z,19744
2016-06-22T10:05:31.007Z,19040
2016-06-22T10:06:30.971Z,20704
2016-06-22T10:07:31.106Z,22080
2016-06-22T10:08:31.205Z,24288
2016-06-22T10:09:31.079Z,22752
2016-06-22T10:10:31.023Z,22112
2016-06-22T10:11:31.143Z,21984
2016-06-22T10:12:30.962Z,20320
2016-06-22T10:13:30.986Z,19552
2016-06-22T10:14:31.619Z,20736
2016-06-22T10:15:31.085Z,19872
2016-06-22T10:16:31.728Z,16888
2016-06-22T10:17:31.050Z,14848
2016-06-22T10:18:31.015Z,15608
2016-06-22T10:19:31.193Z,15860
2016-06-22T10:20:31.043Z,14900
2016-06-22T10:21:31.566Z,16480
2016-06-22T10:22:31.018Z,17388
2016-06-22T10:23:31.029Z,17840
2016-06-22T10:24:31.035Z,17436
2016-06-22T10:25:30.938Z,15876
2016-06-22T10:26:30.971Z,16468
2016-06-22T10:27:30.966Z,17504
2016-06-22T10:28:31.596Z,18244
2016-06-22T10:29:31.606Z,19744
2016-06-22T10:30:31.671Z,17712
2016-06-22T10:31:32.012Z,16636
2016-06-22T10:32:31.026Z,16504
2016-06-22T10:33:31.927Z,17048
2016-06-22T10:34:31.011Z,16484
2016-06-22T10:35:30.983Z,14844
2016-06-22T10:36:30.986Z,13288
2016-06-22T10:37:30.909Z,11060
2016-06-22T10:38:31.047Z,9948
2016-06-22T10:39:31.015Z,10500
2016-06-22T10:40:30.994Z,10972
2016-06-22T10:41:30.986Z,9844
2016-06-22T10:42:31.072Z,9992
2016-06-22T10:43:30.959Z,12228
2016-06-22T10:44:31.051Z,14860
2016-06-22T10:45:31.181Z,16088
2016-06-22T10:46:31.064Z,16908
2016-06-22T10:47:31.046Z,15948
2016-06-22T10:48:31.049Z,15184
2016-06-22T10:49:31.036Z,15380
2016-06-22T10:50:30.998Z,13548
2016-06-22T10:51:31.106Z,12460
2016-06-22T10:52:31.028Z,12516
2016-06-22T10:53:31.791Z,12712
2016-06-22T10:54:31.042Z,13012
2016-06-22T10:55:31.628Z,12576
2016-06-22T10:56:31.077Z,10732
2016-06-22T10:57:31.608Z,12140
2016-06-22T10:58:33.450Z,11196
2016-06-22T10:59:31.110Z,12564
2016-06-22T11:00:31.714Z,11716
2016-06-22T11:01:31.175Z,12408
2016-06-22T11:02:31.058Z,14528
2016-06-22T11:03:31.075Z,14776
2016-06-22T11:04:31.605Z,15868
2016-06-22T11:05:31.408Z,16196
2016-06-22T11:06:31.065Z,15612
2016-06-22T11:07:31.263Z,12056
2016-06-22T11:08:31.254Z,9104
2016-06-22T11:09:31.000Z,8132
2016-06-22T11:10:31.048Z,7744
2016-06-22T11:11:32.721Z,7452
2016-06-22T11:12:31.031Z,7476
2016-06-22T11:13:31.046Z,7816
2016-06-22T11:14:31.808Z,7568
2016-06-22T11:15:30.943Z,9448
2016-06-22T11:16:32.066Z,10488
2016-06-22T11:17:30.947Z,11004
2016-06-22T11:18:31.114Z,11280
2016-06-22T11:19:31.978Z,12300
2016-06-22T11:20:31.045Z,14800
2016-06-22T11:21:31.433Z,16624
2016-06-22T11:22:31.683Z,18912
2016-06-22T11:23:31.265Z,20608
2016-06-22T11:24:32.018Z,19392
2016-06-22T11:25:31.005Z,19200
2016-06-22T11:26:31.098Z,18272
2016-06-22T11:27:31.045Z,15648
2016-06-22T11:28:31.114Z,14312
2016-06-22T11:29:31.099Z,14052
2016-06-22T11:30:31.072Z,12344
2016-06-22T11:31:31.039Z,11604
2016-06-22T11:32:31.082Z,11880
2016-06-22T11:33:31.008Z,11968
2016-06-22T11:34:31.090Z,10556
2016-06-22T11:35:31.127Z,8848
2016-06-22T11:36:31.195Z,7904
2016-06-22T11:37:31.010Z,7260
2016-06-22T11:38:31.550Z,6536
2016-06-22T11:39:31.042Z,5848
2016-06-22T11:40:31.270Z,7316
2016-06-22T11:41:31.047Z,9984
2016-06-22T11:42:31.076Z,10484
2016-06-22T11:43:32.312Z,8320
2016-06-22T11:44:31.191Z,8000
2016-06-22T11:45:31.081Z,8096
2016-06-22T11:46:31.203Z,7740
2016-06-22T11:47:31.772Z,7644
2016-06-22T11:48:31.165Z,8396
2016-06-22T11:49:31.626Z,8936
2016-06-22T11:50:31.238Z,9148
2016-06-22T11:51:32.326Z,10252
2016-06-22T11:52:31.174Z,12256
2016-06-22T11:53:31.187Z,12636
2016-06-22T11:54:31.228Z,12652
2016-06-22T11:55:31.143Z,11728
2016-06-22T11:56:31.265Z,11040
2016-06-22T11:57:31.151Z,10508
2016-06-22T11:58:31.169Z,9988
2016-06-22T11:59:31.058Z,9336
2016-06-22T12:00:31.066Z,8448
2016-06-22T12:01:31.179Z,8132
2016-06-22T12:02:31.177Z,8400
2016-06-22T12:03:31.124Z,11000
2016-06-22T12:04:31.134Z,12920
2016-06-22T12:05:31.120Z,13164
2016-06-22T12:06:31.279Z,13836
2016-06-22T12:07:31.243Z,14896
2016-06-22T12:08:31.370Z,15984
2016-06-22T12:09:31.151Z,14744
2016-06-22T12:10:31.207Z,11804
2016-06-22T12:11:31.213Z,11556
2016-06-22T12:12:31.116Z,12392
2016-06-22T12:13:31.118Z,12376
2016-06-22T12:14:30.987Z,10692
2016-06-22T12:15:31.065Z,9444
2016-06-22T12:16:31.164Z,9388
2016-06-22T12:17:31.312Z,11840
2016-06-22T12:18:31.219Z,14928
2016-06-22T12:19:31.209Z,17400
2016-06-22T12:20:31.169Z,18136
2016-06-22T12:21:51.278Z,16124
2016-06-22T12:22:31.221Z,15060
2016-06-22T12:23:31.247Z,12908
2016-06-22T12:24:31.204Z,11520
2016-06-22T12:25:31.186Z,11624
2016-06-22T12:26:31.235Z,13492
2016-06-22T12:27:31.197Z,15844
2016-06-22T12:28:31.154Z,16048
2016-06-22T12:29:31.130Z,14364
2016-06-22T12:30:31.131Z,12240
2016-06-22T12:31:31.169Z,11140
2016-06-22T12:32:31.269Z,11248
2016-06-22T12:33:31.323Z,10376
2016-06-22T12:34:31.248Z,9368
2016-06-22T12:35:31.286Z,10680
2016-06-22T12:36:31.263Z,9952
2016-06-22T12:37:31.317Z,9504
2016-06-22T12:38:31.229Z,9696
2016-06-22T12:39:31.250Z,8936
2016-06-22T12:41:46.141Z,9556
2016-06-22T12:44:04.414Z,11836
2016-06-22T12:45:04.214Z,13896
2016-06-22T12:46:04.329Z,14816
2016-06-22T12:47:04.216Z,16404
2016-06-22T12:48:04.374Z,16928
2016-06-22T12:49:04.301Z,17432
2016-06-22T12:50:04.279Z,17824
2016-06-22T12:51:04.295Z,18720
2016-06-22T12:52:04.170Z,18912
2016-06-22T12:53:04.486Z,18188
2016-06-22T12:54:04.185Z,17384
2016-06-22T12:55:04.220Z,16696
2016-06-22T12:56:04.324Z,16704
2016-06-22T12:57:04.283Z,17388
2016-06-22T12:58:04.192Z,19328
2016-06-22T12:59:04.402Z,20480
2016-06-22T13:00:04.334Z,20896
2016-06-22T13:01:04.165Z,21216
2016-06-22T13:02:05.587Z,21152
2016-06-22T13:03:04.351Z,21280
2016-06-22T13:04:04.328Z,19840
2016-06-22T13:05:04.400Z,16860
2016-06-22T13:06:05.716Z,15128
2016-06-22T13:07:04.308Z,13624
2016-06-22T13:08:04.283Z,11984
2016-06-22T13:09:04.259Z,11624
2016-06-22T13:10:04.304Z,11076
2016-06-22T13:11:04.316Z,11516
2016-06-22T13:12:04.293Z,12916
2016-06-22T13:13:04.262Z,15004
2016-06-22T13:14:04.305Z,16620
2016-06-22T13:15:04.259Z,17236
2016-06-22T13:16:04.197Z,16976
2016-06-22T13:17:04.643Z,15632
2016-06-22T13:18:04.394Z,13360
2016-06-22T13:19:04.475Z,11884
2016-06-22T13:20:04.365Z,11112
2016-06-22T13:21:04.322Z,11972
2016-06-22T13:22:04.483Z,14048
2016-06-22T13:23:04.306Z,17452
2016-06-22T13:24:04.583Z,20800
2016-06-22T13:25:04.774Z,22208
2016-06-22T13:26:04.239Z,22688
2016-06-22T13:27:04.534Z,22080
2016-06-22T13:28:04.574Z,20192
2016-06-22T13:29:06.569Z,17640
2016-06-22T13:30:04.719Z,16876
2016-06-22T13:31:04.402Z,14800
2016-06-22T13:32:04.311Z,12848
2016-06-22T13:33:04.381Z,11356
2016-06-22T13:34:04.367Z,10936
2016-06-22T13:35:04.440Z,11472
2016-06-22T13:36:04.319Z,13512
2016-06-22T13:37:04.514Z,14996
2016-06-22T13:38:04.374Z,15640